sensor_id;sensor_type;location;lat;lon;timestamp;P1;durP1;ratioP1;P2;durP2;ratioP2
65597;SDS011;52267;51.984;20.956;2024-03-23T00:54:45;28.20;;;15.50;;
65597;SDS011;52267;51.984;20.956;2024-03-23T00:57:11;27.30;;;14.20;;
65597;SDS011;52267;51.984;20.956;2024-03-23T00:59:38;27.20;;;15.20;;
65597;SDS011;52267;51.984;20.956;2024-03-23T01:02:05;27.60;;;15.00;;
65597;SDS011;52267;51.984;20.956;2024-03-23T01:04:32;28.10;;;15.40;;
65597;SDS011;52267;51.984;20.956;2024-03-23T01:06:59;29.30;;;14.30;;
65597;SDS011;52267;51.984;20.956;2024-03-23T01:09:26;32.50;;;16.30;;
65597;SDS011;52267;51.984;20.956;2024-03-23T01:11:53;28.50;;;15.20;;
65597;SDS011;52267;51.984;20.956;2024-03-23T01:14:20;26.90;;;13.80;;
65597;SDS011;52267;51.984;20.956;2024-03-23T01:16:47;26.80;;;14.60;;
65597;SDS011;52267;51.984;20.956;2024-03-23T01:19:14;27.70;;;14.50;;
65597;SDS011;52267;51.984;20.956;2024-03-23T01:21:41;31.40;;;17.30;;
65597;SDS011;52267;51.984;20.956;2024-03-23T01:24:09;27.10;;;15.60;;
65597;SDS011;52267;51.984;20.956;2024-03-23T01:26:37;25.90;;;14.70;;
65597;SDS011;52267;51.984;20.956;2024-03-23T01:29:04;26.10;;;14.60;;
65597;SDS011;52267;51.984;20.956;2024-03-23T01:31:31;24.20;;;14.50;;
65597;SDS011;52267;51.984;20.956;2024-03-23T01:33:58;25.20;;;15.40;;
65597;SDS011;52267;51.984;20.956;2024-03-23T01:36:25;27.70;;;15.70;;
65597;SDS011;52267;51.984;20.956;2024-03-23T01:38:52;26.50;;;15.40;;
65597;SDS011;52267;51.984;20.956;2024-03-23T01:41:19;30.10;;;16.00;;
65597;SDS011;52267;51.984;20.956;2024-03-23T01:43:46;28.70;;;16.90;;
65597;SDS011;52267;51.984;20.956;2024-03-23T01:46:13;28.30;;;14.80;;
65597;SDS011;52267;51.984;20.956;2024-03-23T01:48:40;28.70;;;15.60;;
65597;SDS011;52267;51.984;20.956;2024-03-23T01:51:07;27.30;;;14.90;;
65597;SDS011;52267;51.984;20.956;2024-03-23T01:53:34;30.00;;;16.30;;
65597;SDS011;52267;51.984;20.956;2024-03-23T01:56:02;29.20;;;15.40;;
65597;SDS011;52267;51.984;20.956;2024-03-23T01:58:29;25.10;;;14.40;;
65597;SDS011;52267;51.984;20.956;2024-03-23T02:00:57;27.20;;;15.00;;
65597;SDS011;52267;51.984;20.956;2024-03-23T02:03:28;30.80;;;15.80;;
65597;SDS011;52267;51.984;20.956;2024-03-23T02:05:56;30.90;;;16.60;;
65597;SDS011;52267;51.984;20.956;2024-03-23T02:08:24;29.20;;;15.30;;
65597;SDS011;52267;51.984;20.956;2024-03-23T02:10:51;28.00;;;14.50;;
65597;SDS011;52267;51.984;20.956;2024-03-23T02:13:18;30.10;;;15.80;;
65597;SDS011;52267;51.984;20.956;2024-03-23T02:15:45;30.70;;;15.90;;
65597;SDS011;52267;51.984;20.956;2024-03-23T02:18:12;27.90;;;14.90;;
65597;SDS011;52267;51.984;20.956;2024-03-23T02:20:39;29.50;;;16.20;;
65597;SDS011;52267;51.984;20.956;2024-03-23T02:23:16;27.90;;;15.40;;
65597;SDS011;52267;51.984;20.956;2024-03-23T02:25:44;31.60;;;16.20;;
65597;SDS011;52267;51.984;20.956;2024-03-23T02:28:11;30.00;;;15.50;;
65597;SDS011;52267;51.984;20.956;2024-03-23T02:30:38;28.70;;;16.10;;
65597;SDS011;52267;51.984;20.956;2024-03-23T02:33:08;29.40;;;14.60;;
65597;SDS011;52267;51.984;20.956;2024-03-23T02:35:35;30.80;;;16.40;;
65597;SDS011;52267;51.984;20.956;2024-03-23T02:38:02;32.40;;;16.40;;
65597;SDS011;52267;51.984;20.956;2024-03-23T02:40:29;28.20;;;15.00;;
65597;SDS011;52267;51.984;20.956;2024-03-23T02:42:56;28.50;;;16.30;;
65597;SDS011;52267;51.984;20.956;2024-03-23T02:45:23;32.00;;;16.30;;
65597;SDS011;52267;51.984;20.956;2024-03-23T02:47:50;30.30;;;15.80;;
65597;SDS011;52267;51.984;20.956;2024-03-23T02:50:20;30.70;;;15.90;;
65597;SDS011;52267;51.984;20.956;2024-03-23T02:52:48;30.60;;;16.70;;
65597;SDS011;52267;51.984;20.956;2024-03-23T02:55:15;31.00;;;16.20;;
65597;SDS011;52267;51.984;20.956;2024-03-23T02:57:42;31.90;;;16.30;;
65597;SDS011;52267;51.984;20.956;2024-03-23T03:00:09;30.80;;;16.00;;
65597;SDS011;52267;51.984;20.956;2024-03-23T03:02:37;32.40;;;16.30;;
65597;SDS011;52267;51.984;20.956;2024-03-23T03:05:05;28.40;;;15.80;;
65597;SDS011;52267;51.984;20.956;2024-03-23T03:07:32;30.30;;;16.60;;
65597;SDS011;52267;51.984;20.956;2024-03-23T03:09:59;29.60;;;15.80;;
65597;SDS011;52267;51.984;20.956;2024-03-23T03:12:26;32.90;;;16.90;;
65597;SDS011;52267;51.984;20.956;2024-03-23T03:14:53;29.40;;;16.70;;
65597;SDS011;52267;51.984;20.956;2024-03-23T03:17:20;28.50;;;17.30;;
65597;SDS011;52267;51.984;20.956;2024-03-23T03:19:47;30.30;;;16.00;;
65597;SDS011;52267;51.984;20.956;2024-03-23T03:22:14;30.10;;;16.10;;
65597;SDS011;52267;51.984;20.956;2024-03-23T03:24:41;31.80;;;15.90;;
65597;SDS011;52267;51.984;20.956;2024-03-23T03:27:08;30.70;;;17.20;;
65597;SDS011;52267;51.984;20.956;2024-03-23T03:29:36;35.30;;;17.30;;
65597;SDS011;52267;51.984;20.956;2024-03-23T03:32:03;29.30;;;16.40;;
65597;SDS011;52267;51.984;20.956;2024-03-23T03:34:30;32.10;;;17.10;;
65597;SDS011;52267;51.984;20.956;2024-03-23T03:36:57;33.20;;;17.50;;
65597;SDS011;52267;51.984;20.956;2024-03-23T03:39:24;33.70;;;17.60;;
65597;SDS011;52267;51.984;20.956;2024-03-23T03:41:52;32.40;;;16.60;;
65597;SDS011;52267;51.984;20.956;2024-03-23T03:44:19;30.60;;;18.60;;
65597;SDS011;52267;51.984;20.956;2024-03-23T03:46:46;34.40;;;18.60;;
65597;SDS011;52267;51.984;20.956;2024-03-23T03:49:13;37.20;;;20.60;;
65597;SDS011;52267;51.984;20.956;2024-03-23T03:51:39;34.30;;;18.20;;
65597;SDS011;52267;51.984;20.956;2024-03-23T03:54:06;32.90;;;17.70;;
65597;SDS011;52267;51.984;20.956;2024-03-23T03:56:33;37.10;;;18.20;;
65597;SDS011;52267;51.984;20.956;2024-03-23T03:59:00;36.20;;;19.40;;
65597;SDS011;52267;51.984;20.956;2024-03-23T04:01:27;35.40;;;18.20;;
65597;SDS011;52267;51.984;20.956;2024-03-23T04:03:54;36.00;;;18.70;;
65597;SDS011;52267;51.984;20.956;2024-03-23T04:06:21;34.30;;;17.40;;
65597;SDS011;52267;51.984;20.956;2024-03-23T04:08:48;32.90;;;17.70;;
65597;SDS011;52267;51.984;20.956;2024-03-23T04:11:15;36.70;;;17.50;;
65597;SDS011;52267;51.984;20.956;2024-03-23T04:13:43;34.30;;;17.90;;
65597;SDS011;52267;51.984;20.956;2024-03-23T04:16:09;31.20;;;17.20;;
65597;SDS011;52267;51.984;20.956;2024-03-23T04:18:36;34.10;;;17.20;;
65597;SDS011;52267;51.984;20.956;2024-03-23T04:21:03;34.50;;;18.00;;
65597;SDS011;52267;51.984;20.956;2024-03-23T04:23:30;36.80;;;18.60;;
65597;SDS011;52267;51.984;20.956;2024-03-23T04:26:03;29.30;;;16.70;;
65597;SDS011;52267;51.984;20.956;2024-03-23T04:28:31;31.90;;;17.50;;
65597;SDS011;52267;51.984;20.956;2024-03-23T04:34:58;35.30;;;17.40;;
65597;SDS011;52267;51.984;20.956;2024-03-23T04:37:25;33.60;;;18.90;;
65597;SDS011;52267;51.984;20.956;2024-03-23T04:39:52;36.40;;;19.30;;
65597;SDS011;52267;51.984;20.956;2024-03-23T04:42:19;34.30;;;18.20;;
65597;SDS011;52267;51.984;20.956;2024-03-23T04:44:46;31.90;;;17.90;;
65597;SDS011;52267;51.984;20.956;2024-03-23T04:47:12;35.10;;;18.00;;
65597;SDS011;52267;51.984;20.956;2024-03-23T04:49:39;30.50;;;17.20;;
65597;SDS011;52267;51.984;20.956;2024-03-23T04:52:06;32.20;;;17.00;;
65597;SDS011;52267;51.984;20.956;2024-03-23T04:54:33;32.20;;;18.00;;
65597;SDS011;52267;51.984;20.956;2024-03-23T04:57:00;32.20;;;18.50;;
65597;SDS011;52267;51.984;20.956;2024-03-23T04:59:27;32.80;;;18.10;;
65597;SDS011;52267;51.984;20.956;2024-03-23T05:01:54;31.60;;;17.30;;
65597;SDS011;52267;51.984;20.956;2024-03-23T05:04:20;36.10;;;18.80;;
65597;SDS011;52267;51.984;20.956;2024-03-23T05:06:47;31.30;;;16.80;;
65597;SDS011;52267;51.984;20.956;2024-03-23T05:09:14;35.80;;;17.60;;
65597;SDS011;52267;51.984;20.956;2024-03-23T05:11:41;31.60;;;17.90;;
65597;SDS011;52267;51.984;20.956;2024-03-23T05:14:08;30.30;;;16.80;;
65597;SDS011;52267;51.984;20.956;2024-03-23T05:16:35;35.50;;;17.80;;
65597;SDS011;52267;51.984;20.956;2024-03-23T05:19:02;30.60;;;17.30;;
65597;SDS011;52267;51.984;20.956;2024-03-23T05:21:28;33.20;;;18.10;;
65597;SDS011;52267;51.984;20.956;2024-03-23T05:23:55;32.10;;;18.60;;
65597;SDS011;52267;51.984;20.956;2024-03-23T05:26:22;32.50;;;19.10;;
65597;SDS011;52267;51.984;20.956;2024-03-23T05:28:49;36.00;;;17.60;;
65597;SDS011;52267;51.984;20.956;2024-03-23T05:31:27;35.50;;;18.80;;
65597;SDS011;52267;51.984;20.956;2024-03-23T05:33:54;33.90;;;17.00;;
65597;SDS011;52267;51.984;20.956;2024-03-23T05:36:22;29.80;;;16.70;;
65597;SDS011;52267;51.984;20.956;2024-03-23T05:38:50;31.90;;;16.80;;
65597;SDS011;52267;51.984;20.956;2024-03-23T05:41:17;31.10;;;17.80;;
65597;SDS011;52267;51.984;20.956;2024-03-23T05:43:44;33.20;;;17.20;;
65597;SDS011;52267;51.984;20.956;2024-03-23T05:46:12;29.80;;;18.10;;
65597;SDS011;52267;51.984;20.956;2024-03-23T05:48:39;30.30;;;17.90;;
65597;SDS011;52267;51.984;20.956;2024-03-23T05:51:06;34.30;;;17.70;;
65597;SDS011;52267;51.984;20.956;2024-03-23T05:53:33;36.40;;;18.00;;
65597;SDS011;52267;51.984;20.956;2024-03-23T05:56:02;32.10;;;17.30;;
65597;SDS011;52267;51.984;20.956;2024-03-23T05:58:36;31.80;;;17.00;;
65597;SDS011;52267;51.984;20.956;2024-03-23T06:01:03;35.20;;;17.70;;
65597;SDS011;52267;51.984;20.956;2024-03-23T06:03:30;30.70;;;17.10;;
65597;SDS011;52267;51.984;20.956;2024-03-23T06:05:57;30.10;;;17.80;;
65597;SDS011;52267;51.984;20.956;2024-03-23T06:08:23;32.00;;;17.70;;
65597;SDS011;52267;51.984;20.956;2024-03-23T06:10:51;32.40;;;17.60;;
65597;SDS011;52267;51.984;20.956;2024-03-23T06:13:18;34.30;;;17.80;;
65597;SDS011;52267;51.984;20.956;2024-03-23T06:15:46;32.10;;;17.30;;
65597;SDS011;52267;51.984;20.956;2024-03-23T06:18:13;28.90;;;16.30;;
65597;SDS011;52267;51.984;20.956;2024-03-23T06:20:40;32.40;;;17.40;;
65597;SDS011;52267;51.984;20.956;2024-03-23T06:23:06;30.60;;;17.00;;
65597;SDS011;52267;51.984;20.956;2024-03-23T06:25:33;30.40;;;18.00;;
65597;SDS011;52267;51.984;20.956;2024-03-23T06:28:00;32.00;;;17.60;;
65597;SDS011;52267;51.984;20.956;2024-03-23T06:30:29;30.50;;;17.50;;
65597;SDS011;52267;51.984;20.956;2024-03-23T06:32:58;30.30;;;16.50;;
65597;SDS011;52267;51.984;20.956;2024-03-23T06:35:25;29.80;;;17.20;;
65597;SDS011;52267;51.984;20.956;2024-03-23T06:37:52;31.90;;;17.30;;
65597;SDS011;52267;51.984;20.956;2024-03-23T06:40:19;31.40;;;17.90;;
65597;SDS011;52267;51.984;20.956;2024-03-23T06:42:46;32.00;;;17.40;;
65597;SDS011;52267;51.984;20.956;2024-03-23T06:45:13;34.70;;;17.40;;
65597;SDS011;52267;51.984;20.956;2024-03-23T06:47:39;31.60;;;16.70;;
65597;SDS011;52267;51.984;20.956;2024-03-23T06:50:07;29.60;;;16.40;;
65597;SDS011;52267;51.984;20.956;2024-03-23T06:52:34;28.60;;;15.30;;
65597;SDS011;52267;51.984;20.956;2024-03-23T06:55:01;34.30;;;18.30;;
65597;SDS011;52267;51.984;20.956;2024-03-23T06:57:28;29.00;;;16.40;;
65597;SDS011;52267;51.984;20.956;2024-03-23T06:59:55;31.70;;;16.50;;
65597;SDS011;52267;51.984;20.956;2024-03-23T07:02:22;37.00;;;17.10;;
65597;SDS011;52267;51.984;20.956;2024-03-23T07:04:49;27.20;;;16.10;;
65597;SDS011;52267;51.984;20.956;2024-03-23T07:07:16;26.90;;;15.90;;
65597;SDS011;52267;51.984;20.956;2024-03-23T07:09:43;28.60;;;17.80;;
65597;SDS011;52267;51.984;20.956;2024-03-23T07:12:09;32.20;;;20.20;;
65597;SDS011;52267;51.984;20.956;2024-03-23T07:14:36;36.50;;;20.70;;
65597;SDS011;52267;51.984;20.956;2024-03-23T07:17:04;28.30;;;16.90;;
65597;SDS011;52267;51.984;20.956;2024-03-23T07:19:31;28.40;;;16.60;;
65597;SDS011;52267;51.984;20.956;2024-03-23T07:21:57;32.00;;;20.10;;
65597;SDS011;52267;51.984;20.956;2024-03-23T07:24:24;29.00;;;17.70;;
65597;SDS011;52267;51.984;20.956;2024-03-23T07:26:52;29.20;;;17.70;;
65597;SDS011;52267;51.984;20.956;2024-03-23T07:29:20;26.20;;;14.90;;
65597;SDS011;52267;51.984;20.956;2024-03-23T07:31:47;24.30;;;12.80;;
65597;SDS011;52267;51.984;20.956;2024-03-23T07:34:14;27.00;;;14.20;;
65597;SDS011;52267;51.984;20.956;2024-03-23T07:36:41;27.80;;;13.90;;
65597;SDS011;52267;51.984;20.956;2024-03-23T07:39:08;28.40;;;13.90;;
65597;SDS011;52267;51.984;20.956;2024-03-23T07:41:35;27.20;;;13.60;;
65597;SDS011;52267;51.984;20.956;2024-03-23T07:44:02;25.50;;;13.80;;
65597;SDS011;52267;51.984;20.956;2024-03-23T07:46:29;23.20;;;15.10;;
65597;SDS011;52267;51.984;20.956;2024-03-23T07:48:56;19.60;;;12.10;;
65597;SDS011;52267;51.984;20.956;2024-03-23T07:51:24;19.80;;;10.80;;
65597;SDS011;52267;51.984;20.956;2024-03-23T07:53:51;24.50;;;13.90;;
65597;SDS011;52267;51.984;20.956;2024-03-23T07:56:19;25.10;;;13.10;;
65597;SDS011;52267;51.984;20.956;2024-03-23T07:58:47;21.30;;;11.10;;
65597;SDS011;52267;51.984;20.956;2024-03-23T08:01:15;25.00;;;11.60;;
65597;SDS011;52267;51.984;20.956;2024-03-23T08:03:44;25.60;;;13.70;;
65597;SDS011;52267;51.984;20.956;2024-03-23T08:06:12;21.00;;;12.10;;
65597;SDS011;52267;51.984;20.956;2024-03-23T08:08:41;23.80;;;12.60;;
65597;SDS011;52267;51.984;20.956;2024-03-23T08:11:11;22.80;;;11.80;;
65597;SDS011;52267;51.984;20.956;2024-03-23T08:13:40;25.70;;;13.50;;
65597;SDS011;52267;51.984;20.956;2024-03-23T08:16:08;22.60;;;12.30;;
65597;SDS011;52267;51.984;20.956;2024-03-23T08:18:37;38.20;;;22.60;;
65597;SDS011;52267;51.984;20.956;2024-03-23T08:21:05;40.70;;;22.90;;
65597;SDS011;52267;51.984;20.956;2024-03-23T08:23:34;31.30;;;17.70;;
65597;SDS011;52267;51.984;20.956;2024-03-23T08:26:06;25.60;;;13.50;;
65597;SDS011;52267;51.984;20.956;2024-03-23T08:28:34;22.80;;;13.70;;
65597;SDS011;52267;51.984;20.956;2024-03-23T08:31:03;23.10;;;12.10;;
65597;SDS011;52267;51.984;20.956;2024-03-23T08:33:34;22.30;;;11.20;;
65597;SDS011;52267;51.984;20.956;2024-03-23T08:36:04;23.60;;;12.70;;
65597;SDS011;52267;51.984;20.956;2024-03-23T08:38:33;25.40;;;14.20;;
65597;SDS011;52267;51.984;20.956;2024-03-23T08:41:04;24.10;;;14.20;;
65597;SDS011;52267;51.984;20.956;2024-03-23T08:43:39;18.80;;;10.20;;
65597;SDS011;52267;51.984;20.956;2024-03-23T08:48:45;27.00;;;15.10;;
65597;SDS011;52267;51.984;20.956;2024-03-23T08:51:16;19.70;;;11.30;;
65597;SDS011;52267;51.984;20.956;2024-03-23T08:53:44;19.90;;;11.00;;
65597;SDS011;52267;51.984;20.956;2024-03-23T08:56:12;17.10;;;10.90;;
65597;SDS011;52267;51.984;20.956;2024-03-23T08:58:39;18.20;;;9.10;;
65597;SDS011;52267;51.984;20.956;2024-03-23T09:01:10;18.80;;;10.30;;
65597;SDS011;52267;51.984;20.956;2024-03-23T09:03:40;20.90;;;10.90;;
65597;SDS011;52267;51.984;20.956;2024-03-23T09:06:08;18.00;;;11.10;;
65597;SDS011;52267;51.984;20.956;2024-03-23T09:08:36;23.90;;;12.40;;
65597;SDS011;52267;51.984;20.956;2024-03-23T09:11:04;21.00;;;11.90;;
65597;SDS011;52267;51.984;20.956;2024-03-23T09:13:33;18.50;;;10.10;;
65597;SDS011;52267;51.984;20.956;2024-03-23T09:16:04;14.50;;;8.40;;
65597;SDS011;52267;51.984;20.956;2024-03-23T09:18:33;16.80;;;9.50;;
65597;SDS011;52267;51.984;20.956;2024-03-23T09:21:02;16.60;;;9.10;;
65597;SDS011;52267;51.984;20.956;2024-03-23T09:23:30;16.80;;;10.10;;
65597;SDS011;52267;51.984;20.956;2024-03-23T09:25:57;16.30;;;8.30;;
65597;SDS011;52267;51.984;20.956;2024-03-23T09:28:24;13.30;;;7.50;;
65597;SDS011;52267;51.984;20.956;2024-03-23T09:30:51;16.00;;;9.20;;
65597;SDS011;52267;51.984;20.956;2024-03-23T09:33:18;15.30;;;9.80;;
65597;SDS011;52267;51.984;20.956;2024-03-23T09:35:45;13.00;;;8.00;;
65597;SDS011;52267;51.984;20.956;2024-03-23T09:38:12;15.10;;;9.40;;
65597;SDS011;52267;51.984;20.956;2024-03-23T09:40:42;17.30;;;9.30;;
65597;SDS011;52267;51.984;20.956;2024-03-23T09:43:10;14.00;;;8.60;;
65597;SDS011;52267;51.984;20.956;2024-03-23T09:45:39;13.20;;;8.00;;
65597;SDS011;52267;51.984;20.956;2024-03-23T09:48:10;12.60;;;8.30;;
65597;SDS011;52267;51.984;20.956;2024-03-23T09:50:44;14.60;;;9.00;;
65597;SDS011;52267;51.984;20.956;2024-03-23T09:53:13;14.70;;;9.60;;
65597;SDS011;52267;51.984;20.956;2024-03-23T09:55:42;11.60;;;7.20;;
65597;SDS011;52267;51.984;20.956;2024-03-23T09:58:17;15.30;;;7.90;;
65597;SDS011;52267;51.984;20.956;2024-03-23T10:00:45;13.00;;;7.90;;
65597;SDS011;52267;51.984;20.956;2024-03-23T10:03:12;13.10;;;8.20;;
65597;SDS011;52267;51.984;20.956;2024-03-23T10:05:39;16.10;;;9.40;;
65597;SDS011;52267;51.984;20.956;2024-03-23T10:08:17;17.90;;;9.30;;
65597;SDS011;52267;51.984;20.956;2024-03-23T10:10:46;17.40;;;9.20;;
65597;SDS011;52267;51.984;20.956;2024-03-23T10:13:26;16.80;;;9.50;;
65597;SDS011;52267;51.984;20.956;2024-03-23T10:15:57;12.50;;;7.80;;
65597;SDS011;52267;51.984;20.956;2024-03-23T10:18:26;12.50;;;7.60;;
65597;SDS011;52267;51.984;20.956;2024-03-23T10:21:10;13.00;;;8.20;;
65597;SDS011;52267;51.984;20.956;2024-03-23T10:23:39;13.10;;;7.70;;
65597;SDS011;52267;51.984;20.956;2024-03-23T10:26:18;16.70;;;8.00;;
65597;SDS011;52267;51.984;20.956;2024-03-23T10:29:02;11.50;;;7.60;;
65597;SDS011;52267;51.984;20.956;2024-03-23T10:31:34;12.20;;;8.30;;
65597;SDS011;52267;51.984;20.956;2024-03-23T10:34:07;11.90;;;8.30;;
65597;SDS011;52267;51.984;20.956;2024-03-23T10:36:38;11.60;;;7.00;;
65597;SDS011;52267;51.984;20.956;2024-03-23T10:39:07;11.00;;;7.10;;
65597;SDS011;52267;51.984;20.956;2024-03-23T10:41:34;11.40;;;7.00;;
65597;SDS011;52267;51.984;20.956;2024-03-23T10:44:02;11.80;;;7.40;;
65597;SDS011;52267;51.984;20.956;2024-03-23T10:46:29;12.70;;;7.40;;
65597;SDS011;52267;51.984;20.956;2024-03-23T10:48:56;15.60;;;7.90;;
65597;SDS011;52267;51.984;20.956;2024-03-23T10:51:22;10.40;;;7.50;;
65597;SDS011;52267;51.984;20.956;2024-03-23T10:53:50;10.70;;;6.60;;
65597;SDS011;52267;51.984;20.956;2024-03-23T10:56:20;12.50;;;7.10;;
65597;SDS011;52267;51.984;20.956;2024-03-23T10:58:48;9.10;;;5.70;;
65597;SDS011;52267;51.984;20.956;2024-03-23T11:01:16;10.00;;;5.70;;
65597;SDS011;52267;51.984;20.956;2024-03-23T11:03:46;9.40;;;5.40;;
65597;SDS011;52267;51.984;20.956;2024-03-23T11:06:38;8.50;;;5.50;;
65597;SDS011;52267;51.984;20.956;2024-03-23T11:14:52;11.10;;;6.20;;
65597;SDS011;52267;51.984;20.956;2024-03-23T11:17:22;10.80;;;6.70;;
65597;SDS011;52267;51.984;20.956;2024-03-23T11:20:03;9.20;;;6.30;;
65597;SDS011;52267;51.984;20.956;2024-03-23T11:22:38;9.90;;;6.90;;
65597;SDS011;52267;51.984;20.956;2024-03-23T11:25:17;10.00;;;6.80;;
65597;SDS011;52267;51.984;20.956;2024-03-23T11:27:45;10.00;;;6.80;;
65597;SDS011;52267;51.984;20.956;2024-03-23T11:30:17;10.40;;;5.70;;
65597;SDS011;52267;51.984;20.956;2024-03-23T11:32:46;10.30;;;6.20;;
65597;SDS011;52267;51.984;20.956;2024-03-23T11:35:31;10.40;;;6.30;;
65597;SDS011;52267;51.984;20.956;2024-03-23T11:40:43;9.50;;;6.20;;
65597;SDS011;52267;51.984;20.956;2024-03-23T11:43:18;12.00;;;7.60;;
65597;SDS011;52267;51.984;20.956;2024-03-23T11:45:48;12.20;;;7.40;;
65597;SDS011;52267;51.984;20.956;2024-03-23T11:48:21;11.40;;;7.10;;
65597;SDS011;52267;51.984;20.956;2024-03-23T11:50:51;8.10;;;5.40;;
65597;SDS011;52267;51.984;20.956;2024-03-23T11:53:23;11.60;;;6.80;;
65597;SDS011;52267;51.984;20.956;2024-03-23T11:55:55;13.10;;;6.50;;
65597;SDS011;52267;51.984;20.956;2024-03-23T11:58:25;10.70;;;7.60;;
65597;SDS011;52267;51.984;20.956;2024-03-23T12:00:57;10.10;;;6.50;;
65597;SDS011;52267;51.984;20.956;2024-03-23T12:03:26;12.00;;;6.90;;
65597;SDS011;52267;51.984;20.956;2024-03-23T12:05:58;12.60;;;7.40;;
65597;SDS011;52267;51.984;20.956;2024-03-23T12:08:32;12.70;;;7.90;;
65597;SDS011;52267;51.984;20.956;2024-03-23T12:13:38;13.40;;;7.60;;
65597;SDS011;52267;51.984;20.956;2024-03-23T12:16:15;12.60;;;7.90;;
65597;SDS011;52267;51.984;20.956;2024-03-23T12:18:50;12.20;;;7.80;;
65597;SDS011;52267;51.984;20.956;2024-03-23T12:21:21;11.40;;;7.80;;
65597;SDS011;52267;51.984;20.956;2024-03-23T12:23:49;9.70;;;7.30;;
65597;SDS011;52267;51.984;20.956;2024-03-23T12:26:16;9.70;;;6.50;;
65597;SDS011;52267;51.984;20.956;2024-03-23T12:28:45;8.30;;;5.80;;
65597;SDS011;52267;51.984;20.956;2024-03-23T12:31:12;10.60;;;6.80;;
65597;SDS011;52267;51.984;20.956;2024-03-23T12:33:38;10.50;;;6.80;;
65597;SDS011;52267;51.984;20.956;2024-03-23T12:36:05;9.20;;;6.60;;
65597;SDS011;52267;51.984;20.956;2024-03-23T12:38:32;10.00;;;5.90;;
65597;SDS011;52267;51.984;20.956;2024-03-23T12:40:59;9.50;;;5.80;;
65597;SDS011;52267;51.984;20.956;2024-03-23T12:43:26;9.00;;;5.80;;
65597;SDS011;52267;51.984;20.956;2024-03-23T12:45:54;8.40;;;6.10;;
65597;SDS011;52267;51.984;20.956;2024-03-23T12:48:21;8.50;;;6.20;;
65597;SDS011;52267;51.984;20.956;2024-03-23T12:50:48;9.50;;;5.80;;
65597;SDS011;52267;51.984;20.956;2024-03-23T12:53:15;8.10;;;5.30;;
65597;SDS011;52267;51.984;20.956;2024-03-23T12:55:41;8.80;;;6.10;;
65597;SDS011;52267;51.984;20.956;2024-03-23T12:58:08;8.40;;;6.10;;
65597;SDS011;52267;51.984;20.956;2024-03-23T13:00:35;9.30;;;5.40;;
65597;SDS011;52267;51.984;20.956;2024-03-23T13:03:02;9.50;;;6.20;;
65597;SDS011;52267;51.984;20.956;2024-03-23T13:05:31;10.50;;;7.50;;
65597;SDS011;52267;51.984;20.956;2024-03-23T13:07:57;8.80;;;5.70;;
65597;SDS011;52267;51.984;20.956;2024-03-23T13:10:24;8.60;;;6.70;;
65597;SDS011;52267;51.984;20.956;2024-03-23T13:12:51;9.80;;;6.70;;
65597;SDS011;52267;51.984;20.956;2024-03-23T13:15:19;8.30;;;5.60;;
65597;SDS011;52267;51.984;20.956;2024-03-23T13:17:47;10.30;;;6.20;;
65597;SDS011;52267;51.984;20.956;2024-03-23T13:20:14;10.00;;;6.30;;
65597;SDS011;52267;51.984;20.956;2024-03-23T13:22:41;8.80;;;5.90;;
65597;SDS011;52267;51.984;20.956;2024-03-23T13:25:08;10.90;;;8.20;;
65597;SDS011;52267;51.984;20.956;2024-03-23T13:27:35;10.40;;;6.30;;
65597;SDS011;52267;51.984;20.956;2024-03-23T13:30:02;8.80;;;7.00;;
65597;SDS011;52267;51.984;20.956;2024-03-23T13:32:30;9.50;;;6.20;;
65597;SDS011;52267;51.984;20.956;2024-03-23T13:34:57;17.00;;;13.60;;
65597;SDS011;52267;51.984;20.956;2024-03-23T13:37:24;13.10;;;9.50;;
65597;SDS011;52267;51.984;20.956;2024-03-23T13:39:51;13.90;;;11.30;;
65597;SDS011;52267;51.984;20.956;2024-03-23T13:42:18;13.00;;;8.10;;
65597;SDS011;52267;51.984;20.956;2024-03-23T13:44:45;16.80;;;12.80;;
65597;SDS011;52267;51.984;20.956;2024-03-23T13:47:11;12.70;;;8.30;;
65597;SDS011;52267;51.984;20.956;2024-03-23T13:49:38;11.10;;;7.50;;
65597;SDS011;52267;51.984;20.956;2024-03-23T13:52:07;11.30;;;8.20;;
65597;SDS011;52267;51.984;20.956;2024-03-23T13:54:34;11.30;;;6.60;;
65597;SDS011;52267;51.984;20.956;2024-03-23T13:57:01;20.40;;;15.10;;
65597;SDS011;52267;51.984;20.956;2024-03-23T13:59:29;11.20;;;8.00;;
65597;SDS011;52267;51.984;20.956;2024-03-23T14:01:56;11.70;;;7.30;;
65597;SDS011;52267;51.984;20.956;2024-03-23T14:04:24;9.20;;;6.40;;
65597;SDS011;52267;51.984;20.956;2024-03-23T14:06:51;12.60;;;9.50;;
65597;SDS011;52267;51.984;20.956;2024-03-23T14:09:18;13.30;;;9.10;;
65597;SDS011;52267;51.984;20.956;2024-03-23T14:11:49;16.00;;;10.70;;
65597;SDS011;52267;51.984;20.956;2024-03-23T14:14:17;14.50;;;9.90;;
65597;SDS011;52267;51.984;20.956;2024-03-23T14:16:44;14.90;;;9.50;;
65597;SDS011;52267;51.984;20.956;2024-03-23T14:19:11;14.80;;;9.40;;
65597;SDS011;52267;51.984;20.956;2024-03-23T14:21:38;39.00;;;26.20;;
65597;SDS011;52267;51.984;20.956;2024-03-23T14:24:05;117.90;;;68.80;;
65597;SDS011;52267;51.984;20.956;2024-03-23T14:26:32;35.30;;;22.40;;
65597;SDS011;52267;51.984;20.956;2024-03-23T14:28:59;56.60;;;34.10;;
65597;SDS011;52267;51.984;20.956;2024-03-23T14:31:26;30.70;;;19.70;;
65597;SDS011;52267;51.984;20.956;2024-03-23T14:33:53;17.90;;;11.80;;
65597;SDS011;52267;51.984;20.956;2024-03-23T14:36:20;18.90;;;10.70;;
65597;SDS011;52267;51.984;20.956;2024-03-23T14:38:48;15.90;;;10.00;;
65597;SDS011;52267;51.984;20.956;2024-03-23T14:41:16;15.30;;;9.80;;
65597;SDS011;52267;51.984;20.956;2024-03-23T14:43:43;18.70;;;11.90;;
65597;SDS011;52267;51.984;20.956;2024-03-23T14:46:16;68.80;;;32.60;;
65597;SDS011;52267;51.984;20.956;2024-03-23T14:48:44;37.70;;;24.20;;
65597;SDS011;52267;51.984;20.956;2024-03-23T14:51:12;17.70;;;12.90;;
65597;SDS011;52267;51.984;20.956;2024-03-23T14:53:41;17.60;;;11.20;;
65597;SDS011;52267;51.984;20.956;2024-03-23T14:56:11;33.30;;;18.70;;
65597;SDS011;52267;51.984;20.956;2024-03-23T14:58:41;34.40;;;18.10;;
65597;SDS011;52267;51.984;20.956;2024-03-23T15:01:09;47.40;;;24.20;;
65597;SDS011;52267;51.984;20.956;2024-03-23T15:03:39;47.50;;;23.80;;
65597;SDS011;52267;51.984;20.956;2024-03-23T15:06:06;32.80;;;19.50;;
65597;SDS011;52267;51.984;20.956;2024-03-23T15:08:36;31.60;;;17.20;;
65597;SDS011;52267;51.984;20.956;2024-03-23T15:11:04;18.20;;;12.10;;
65597;SDS011;52267;51.984;20.956;2024-03-23T15:13:35;17.80;;;12.60;;
65597;SDS011;52267;51.984;20.956;2024-03-23T15:16:03;17.10;;;11.90;;
65597;SDS011;52267;51.984;20.956;2024-03-23T15:18:32;17.60;;;12.40;;
65597;SDS011;52267;51.984;20.956;2024-03-23T15:21:00;45.30;;;23.60;;
65597;SDS011;52267;51.984;20.956;2024-03-23T15:23:29;89.90;;;46.30;;
65597;SDS011;52267;51.984;20.956;2024-03-23T15:25:57;22.30;;;14.80;;
65597;SDS011;52267;51.984;20.956;2024-03-23T15:28:25;15.50;;;9.40;;
65597;SDS011;52267;51.984;20.956;2024-03-23T15:31:08;9.20;;;6.70;;